Guernsey, WY (82214)

3:14 AM MST on February 06, 2016 (GMT -0700)
West Mariposa | | Change Station
CLOSE
Current Station
Personal Weather Station
Location: Wheatland, WY
Elevation: 4806 ft
Nearby Weather Stations

Elev 4806 ft 42.05 °N, 104.97 °W | Updated 13 seconds ago

Clear
Clear
31.8 °F
Feels Like 20 °F
N
18.1
Wind Variable Wind from SSW
Gusts 22.4 mph

Today
High -- | Low -- °F
--% Chance of Precip.
Yesterday
High -- | Low -- °F
Precip. -- in
Pressure 30.25 in
Visibility 10.0 miles
Clouds Clear
Windchill 20 °F
Dew Point 15 °F
Humidity 50%
Rainfall 0.00 in
Snow Depth Not available.
7:07 AM 5:19 PM
Waning Crescent, 6% visible
METAR KTOR 060953Z AUTO 29009KT 10SM CLR M02/M08 A3017 RMK AO2 SLP242 T10171083
Pressure 30.25 in
Visibility 10.0 miles
Clouds Clear
Windchill 20 °F
Dew Point 15 °F
Humidity 50%
Rainfall 0.00 in
Snow Depth Not available.
7:07 AM 5:19 PM
Waning Crescent, 6% visible
METAR KTOR 060953Z AUTO 29009KT 10SM CLR M02/M08 A3017 RMK AO2 SLP242 T10171083

10-Day Weather Forecast

Almanac

Astronomy

Feb. 06, 2016 Rise Set
Actual Time
Civil Twilight
Nautical Twilight
Astronomical Twilight
Moon
Length of Visible Light
Length of Day
Tomorrow will be .
, % of the Moon is Illuminated

Today's Extremes

State Highs State Lows

Community

WunderPhotos

Upload Photos

1,890,933 photos uploaded!

WunderBlog® & News

Nearby

Air Quality

  Air Quality AQ Index Pollutant
Not available.

Snow Depth

Station Depth Elevation

Earthquake Activity

City Distance Mag. Time & Date
Minimum magnitude displayed is 2.5.

Coastal Water Temperatures

Place Temperature

Stations

Nearby Weather Stations

Station Location Temp. Windchill Dew Point Humidity Wind Precip. Elev Updated Type
                   

Watches & Warnings

There are currently no watches in effect.